createdAt,value
2019-01-20T00:01:26.370Z,5.00
2019-01-20T00:03:55.795Z,6.57
2019-01-20T00:06:25.211Z,5.43
2019-01-20T00:09:13.866Z,4.17
2019-01-20T00:12:02.676Z,4.43
2019-01-20T00:14:32.226Z,5.60
2019-01-20T00:17:01.639Z,4.67
2019-01-20T00:19:31.028Z,5.73
2019-01-20T00:22:00.472Z,5.40
2019-01-20T00:24:29.935Z,5.20
2019-01-20T00:26:59.342Z,4.50
2019-01-20T00:29:41.338Z,4.57
2019-01-20T00:32:10.744Z,4.17
2019-01-20T00:34:40.151Z,4.20
2019-01-20T00:37:09.590Z,4.03
2019-01-20T00:39:39.083Z,4.80
2019-01-20T00:42:08.571Z,4.40
2019-01-20T00:44:38.005Z,4.00
2019-01-20T00:47:07.444Z,4.70
2019-01-20T00:49:36.882Z,4.73
2019-01-20T00:52:06.382Z,4.03
2019-01-20T00:54:38.651Z,4.57
2019-01-20T00:57:27.456Z,4.03
2019-01-20T00:59:56.914Z,4.67
2019-01-20T01:02:26.420Z,4.60
2019-01-20T01:05:09.094Z,4.40
2019-01-20T01:07:57.947Z,4.37
2019-01-20T01:10:27.551Z,4.60
2019-01-20T01:12:59.245Z,3.80
2019-01-20T01:15:28.814Z,4.27
2019-01-20T01:18:06.992Z,4.83
2019-01-20T01:20:36.432Z,4.63
2019-01-20T01:23:07.439Z,3.90
2019-01-20T01:25:37.015Z,4.23
2019-01-20T01:28:06.542Z,4.87
2019-01-20T01:30:35.956Z,4.60
2019-01-20T01:33:05.556Z,4.67
2019-01-20T01:35:36.881Z,4.90
2019-01-20T01:38:07.922Z,4.97
2019-01-20T01:40:37.337Z,5.07
2019-01-20T01:43:06.826Z,5.10
2019-01-20T01:45:42.634Z,5.17
2019-01-20T01:48:12.066Z,4.93
2019-01-20T01:50:41.541Z,5.13
2019-01-20T01:53:10.972Z,4.90
2019-01-20T01:55:40.437Z,4.70
2019-01-20T01:58:09.907Z,4.60
2019-01-20T02:00:58.806Z,4.63
2019-01-20T02:03:29.562Z,4.43
2019-01-20T02:05:58.981Z,4.83
2019-01-20T02:08:28.553Z,4.77
2019-01-20T02:10:58.239Z,5.30
2019-01-20T02:13:27.776Z,4.77
2019-01-20T02:15:57.238Z,3.97
2019-01-20T02:18:26.676Z,4.43
2019-01-20T02:20:56.183Z,4.50
2019-01-20T02:23:25.649Z,4.80
2019-01-20T02:25:55.103Z,4.23
2019-01-20T02:28:24.557Z,4.53
2019-01-20T02:31:06.617Z,4.87
2019-01-20T02:33:36.089Z,4.43
2019-01-20T02:36:05.523Z,4.23
2019-01-20T02:38:54.331Z,5.13
2019-01-20T02:41:37.014Z,4.40
2019-01-20T02:44:06.446Z,4.87
2019-01-20T02:46:35.967Z,5.43
2019-01-20T02:49:05.458Z,7.10
2019-01-20T02:51:34.871Z,6.13
2019-01-20T02:54:17.220Z,5.47
2019-01-20T02:56:59.788Z,5.00
2019-01-20T02:59:34.049Z,5.73
2019-01-20T03:02:03.538Z,5.17
2019-01-20T03:04:37.721Z,5.30
2019-01-20T03:07:08.184Z,5.80
2019-01-20T03:09:37.708Z,5.20
2019-01-20T03:12:07.117Z,5.03
2019-01-20T03:14:36.605Z,5.87
2019-01-20T03:17:25.523Z,5.57
2019-01-20T03:19:54.891Z,5.57
2019-01-20T03:22:24.419Z,5.67
2019-01-20T03:24:55.489Z,5.20
2019-01-20T03:27:24.976Z,5.83
2019-01-20T03:29:54.418Z,5.10
2019-01-20T03:32:23.850Z,5.33
2019-01-20T03:34:53.703Z,4.97
2019-01-20T03:37:23.196Z,5.10
2019-01-20T03:39:52.597Z,4.90
2019-01-20T03:42:35.109Z,4.43
2019-01-20T03:45:07.597Z,4.30
2019-01-20T03:47:37.045Z,5.00
2019-01-20T03:50:09.020Z,5.07
2019-01-20T03:52:38.831Z,4.63
2019-01-20T03:55:11.100Z,4.73
2019-01-20T03:57:40.677Z,4.30
2019-01-20T04:00:29.485Z,4.10
2019-01-20T04:03:00.293Z,5.30
2019-01-20T04:05:30.032Z,5.83
2019-01-20T04:07:59.462Z,5.70
2019-01-20T04:10:28.925Z,5.13
2019-01-20T04:12:58.348Z,5.83
2019-01-20T04:15:47.165Z,5.47
2019-01-20T04:18:31.485Z,5.07
2019-01-20T04:21:20.331Z,4.93
2019-01-20T04:24:02.789Z,5.13
2019-01-20T04:26:32.308Z,5.40
2019-01-20T04:29:01.756Z,5.00
2019-01-20T04:31:31.211Z,5.10
2019-01-20T04:34:03.073Z,4.80
2019-01-20T04:36:32.526Z,5.17
2019-01-20T04:39:01.940Z,5.13
2019-01-20T04:41:31.437Z,5.70
2019-01-20T04:44:00.939Z,5.43
2019-01-20T04:46:30.353Z,4.97
2019-01-20T04:49:21.891Z,4.37
2019-01-20T04:51:51.322Z,5.00
2019-01-20T04:54:20.788Z,5.00
2019-01-20T04:56:50.304Z,4.43
2019-01-20T04:59:21.299Z,4.27
2019-01-20T05:01:50.784Z,4.53
2019-01-20T05:04:20.235Z,4.50
2019-01-20T05:06:51.334Z,4.23
2019-01-20T05:09:20.779Z,5.03
2019-01-20T05:11:50.190Z,5.40
2019-01-20T05:14:19.724Z,5.03
2019-01-20T05:17:01.625Z,4.87
2019-01-20T05:19:31.052Z,5.10
2019-01-20T05:22:00.542Z,5.47
2019-01-20T05:24:30.039Z,5.23
2019-01-20T05:26:59.447Z,4.93
2019-01-20T05:29:28.896Z,5.10
2019-01-20T05:31:58.317Z,5.03
2019-01-20T05:34:47.145Z,5.43
2019-01-20T05:37:16.583Z,4.63
2019-01-20T05:39:46.380Z,4.73
2019-01-20T05:42:15.834Z,5.30
2019-01-20T05:44:51.502Z,5.20
2019-01-20T05:47:21.757Z,5.07
2019-01-20T05:49:51.296Z,5.33
2019-01-20T05:52:20.691Z,4.90
2019-01-20T05:54:50.129Z,5.17
2019-01-20T05:57:20.636Z,5.50
2019-01-20T05:59:50.175Z,5.57
2019-01-20T06:02:19.646Z,6.00
2019-01-20T06:04:49.043Z,5.80
2019-01-20T06:07:18.600Z,5.47
2019-01-20T06:09:48.063Z,6.13
2019-01-20T06:12:17.691Z,5.63
2019-01-20T06:14:47.168Z,6.33
2019-01-20T06:17:19.504Z,6.23
2019-01-20T06:19:48.963Z,5.80
2019-01-20T06:22:18.500Z,6.60
2019-01-20T06:24:47.963Z,6.20
2019-01-20T06:27:17.387Z,6.20
2019-01-20T06:29:46.845Z,6.40
2019-01-20T06:32:16.297Z,5.93
2019-01-20T06:34:45.740Z,5.87
2019-01-20T06:37:20.003Z,6.50
2019-01-20T06:39:50.139Z,6.50
2019-01-20T06:42:38.989Z,6.30
2019-01-20T06:45:13.376Z,6.10
2019-01-20T06:47:42.813Z,6.77
2019-01-20T06:50:14.515Z,7.00
2019-01-20T06:52:43.983Z,6.70
2019-01-20T06:55:13.835Z,7.00
2019-01-20T06:57:43.247Z,5.97
2019-01-20T07:00:19.534Z,7.13
2019-01-20T07:02:49.894Z,6.90
2019-01-20T07:05:19.340Z,6.50
2019-01-20T07:07:50.225Z,5.87
2019-01-20T07:10:19.690Z,6.90
2019-01-20T07:12:49.158Z,7.07
2019-01-20T07:15:20.292Z,7.27
2019-01-20T07:18:09.188Z,7.03
2019-01-20T07:20:38.712Z,6.47
2019-01-20T07:23:08.152Z,6.73
2019-01-20T07:25:37.665Z,7.53
2019-01-20T07:28:07.087Z,7.13
2019-01-20T07:30:38.176Z,7.53
2019-01-20T07:33:08.170Z,7.10
2019-01-20T07:35:37.647Z,6.70
2019-01-20T07:38:07.081Z,7.10
2019-01-20T07:40:49.975Z,7.20
2019-01-20T07:43:19.401Z,6.57
2019-01-20T07:45:48.937Z,7.27
2019-01-20T07:48:19.485Z,7.20
2019-01-20T07:50:48.939Z,7.30
2019-01-20T07:53:18.425Z,8.10
2019-01-20T07:55:50.945Z,7.30
2019-01-20T07:58:20.511Z,7.67
2019-01-20T08:01:07.946Z,7.97
2019-01-20T08:03:56.790Z,8.07
2019-01-20T08:06:26.212Z,7.77
2019-01-20T08:08:55.832Z,7.67
2019-01-20T08:11:25.342Z,7.63
2019-01-20T08:14:14.186Z,8.17
2019-01-20T08:16:43.671Z,7.90
2019-01-20T08:19:13.118Z,7.73
2019-01-20T08:21:42.684Z,7.70
2019-01-20T08:24:31.581Z,8.47
2019-01-20T08:27:04.185Z,7.53
2019-01-20T08:29:33.687Z,8.33
2019-01-20T08:32:03.156Z,7.30
2019-01-20T08:34:32.573Z,8.70
2019-01-20T08:37:02.011Z,8.00
2019-01-20T08:39:31.480Z,8.17
2019-01-20T08:42:00.910Z,7.53
2019-01-20T08:44:35.246Z,8.23
2019-01-20T08:47:07.615Z,8.40
2019-01-20T08:49:37.375Z,8.00
2019-01-20T08:52:06.914Z,7.80
2019-01-20T08:54:49.761Z,8.33
2019-01-20T08:57:22.083Z,7.90
2019-01-20T09:00:06.435Z,8.07
2019-01-20T09:02:36.234Z,8.50
2019-01-20T09:05:06.365Z,8.27
2019-01-20T09:07:55.247Z,8.93
2019-01-20T09:10:25.950Z,8.57
2019-01-20T09:12:56.328Z,9.40
2019-01-20T09:15:39.218Z,8.40
2019-01-20T09:18:28.900Z,8.40
2019-01-20T09:21:00.068Z,9.00
2019-01-20T09:23:29.494Z,9.17
2019-01-20T09:25:58.940Z,9.30
2019-01-20T09:28:28.397Z,9.17
2019-01-20T09:31:02.244Z,9.20
2019-01-20T09:33:31.749Z,9.93
2019-01-20T09:36:01.192Z,9.37
2019-01-20T09:38:30.612Z,9.97
2019-01-20T09:41:00.060Z,9.13
2019-01-20T09:43:47.090Z,9.90
2019-01-20T09:46:33.537Z,9.50
2019-01-20T09:49:05.367Z,8.80
2019-01-20T09:51:35.501Z,9.57
2019-01-20T09:54:05.071Z,9.20
2019-01-20T09:56:34.579Z,9.33
2019-01-20T09:59:04.141Z,9.20
2019-01-20T10:01:33.640Z,8.87
2019-01-20T10:04:03.017Z,9.17
2019-01-20T10:06:35.427Z,8.63
2019-01-20T10:09:07.125Z,9.30
2019-01-20T10:11:36.840Z,8.53
2019-01-20T10:14:06.307Z,9.03
2019-01-20T10:16:35.789Z,8.83
2019-01-20T10:19:05.208Z,8.57
2019-01-20T10:21:34.740Z,8.37
2019-01-20T10:24:04.209Z,9.03
2019-01-20T10:26:38.008Z,8.77
2019-01-20T10:29:07.567Z,9.30
2019-01-20T10:31:37.076Z,9.63
2019-01-20T10:34:19.721Z,8.57
2019-01-20T10:36:52.283Z,9.60
2019-01-20T10:39:23.312Z,8.80
2019-01-20T10:41:53.534Z,9.03
2019-01-20T10:44:23.088Z,7.53
2019-01-20T10:46:52.720Z,8.83
2019-01-20T10:49:22.154Z,8.93
2019-01-20T10:51:51.685Z,9.60
2019-01-20T10:54:21.939Z,9.40
2019-01-20T10:56:54.479Z,9.27
2019-01-20T10:59:24.260Z,9.47
2019-01-20T11:01:53.695Z,10.20
2019-01-20T11:04:23.159Z,8.87
2019-01-20T11:06:52.542Z,9.27
2019-01-20T11:09:21.972Z,9.80
2019-01-20T11:11:51.559Z,9.07
2019-01-20T11:14:20.987Z,9.27
2019-01-20T11:16:50.444Z,9.07
2019-01-20T11:19:19.886Z,9.33
2019-01-20T11:22:02.814Z,10.10
2019-01-20T11:24:32.230Z,9.70
2019-01-20T11:27:01.668Z,9.77
2019-01-20T11:29:36.036Z,9.40
2019-01-20T11:32:24.955Z,10.03
2019-01-20T11:35:10.733Z,9.97
2019-01-20T11:37:40.215Z,10.67
2019-01-20T11:40:29.022Z,9.27
2019-01-20T11:42:58.462Z,9.53
2019-01-20T11:45:29.736Z,9.50
2019-01-20T11:47:59.209Z,10.67
2019-01-20T11:50:28.822Z,9.17
2019-01-20T11:52:58.231Z,10.20
2019-01-20T11:55:28.499Z,9.97
2019-01-20T11:57:59.598Z,10.03
2019-01-20T12:00:42.206Z,9.50
2019-01-20T12:03:11.724Z,9.17
2019-01-20T12:06:00.532Z,9.60
2019-01-20T12:08:30.684Z,9.37
2019-01-20T12:11:03.399Z,9.80
2019-01-20T12:13:33.517Z,9.77
2019-01-20T12:16:02.947Z,8.67
2019-01-20T12:18:32.361Z,9.40
2019-01-20T12:21:01.804Z,9.20
2019-01-20T12:23:31.277Z,9.50
2019-01-20T12:26:00.777Z,9.07
2019-01-20T12:28:30.254Z,10.50
2019-01-20T12:30:59.690Z,9.50
2019-01-20T12:33:29.218Z,9.80
2019-01-20T12:36:18.425Z,10.43
2019-01-20T12:38:47.895Z,9.13
2019-01-20T12:41:17.382Z,9.20
2019-01-20T12:43:51.679Z,10.33
2019-01-20T12:46:21.156Z,9.43
2019-01-20T12:48:50.544Z,10.13
2019-01-20T12:51:19.984Z,9.73
2019-01-20T12:53:49.411Z,10.20
2019-01-20T12:56:32.121Z,10.57
2019-01-20T12:59:01.646Z,9.87
2019-01-20T13:01:31.069Z,8.87
2019-01-20T13:04:00.477Z,9.10
2019-01-20T13:06:30.015Z,8.17
2019-01-20T13:08:59.511Z,9.47
2019-01-20T13:11:28.930Z,8.83
2019-01-20T13:13:58.633Z,9.53
2019-01-20T13:16:28.083Z,8.10
2019-01-20T13:18:57.576Z,8.47
2019-01-20T13:21:29.963Z,9.07
2019-01-20T13:23:59.378Z,8.27
2019-01-20T13:26:28.919Z,8.93
2019-01-20T13:28:58.552Z,9.23
2019-01-20T13:31:27.952Z,9.67
2019-01-20T13:33:57.396Z,9.13
2019-01-20T13:36:26.809Z,9.80
2019-01-20T13:38:57.853Z,9.80
2019-01-20T13:41:40.150Z,9.87
2019-01-20T13:44:09.570Z,8.80
2019-01-20T13:46:39.018Z,9.03
2019-01-20T13:49:13.386Z,8.40
2019-01-20T13:51:47.712Z,8.83
2019-01-20T13:54:17.100Z,8.90
2019-01-20T13:56:46.558Z,8.70
2019-01-20T13:59:17.181Z,9.00
2019-01-20T14:01:46.675Z,8.27
2019-01-20T14:04:20.858Z,8.03
2019-01-20T14:06:50.362Z,8.00
2019-01-20T14:09:19.773Z,7.67
2019-01-20T14:11:49.278Z,8.10
2019-01-20T14:14:18.884Z,7.87
2019-01-20T14:16:48.347Z,9.33
2019-01-20T14:19:21.703Z,8.40
2019-01-20T14:21:48.938Z,8.50
2019-01-20T14:24:23.234Z,8.73
2019-01-20T14:26:52.656Z,9.27
2019-01-20T14:29:22.064Z,8.73
2019-01-20T14:31:51.464Z,7.43
2019-01-20T14:34:21.119Z,7.00
2019-01-20T14:36:50.543Z,7.00
2019-01-20T14:39:19.981Z,6.80
2019-01-20T14:41:49.399Z,7.00
2019-01-20T14:44:21.760Z,8.07
2019-01-20T14:46:51.206Z,7.03
2019-01-20T14:49:20.604Z,7.50
2019-01-20T14:51:50.023Z,7.83
2019-01-20T14:54:24.298Z,7.03
2019-01-20T14:56:53.765Z,8.13
2019-01-20T14:59:26.149Z,8.13
2019-01-20T15:01:55.624Z,8.37
2019-01-20T15:04:25.060Z,8.73
2019-01-20T15:06:54.494Z,9.27
2019-01-20T15:09:23.907Z,8.60
2019-01-20T15:11:53.339Z,8.97
2019-01-20T15:14:25.639Z,8.53
2019-01-20T15:16:55.149Z,8.70
2019-01-20T15:19:24.726Z,8.60
2019-01-20T15:21:54.202Z,7.70
2019-01-20T15:24:25.085Z,8.07
2019-01-20T15:26:54.549Z,8.33
2019-01-20T15:29:23.958Z,8.43
2019-01-20T15:31:56.022Z,9.20
2019-01-20T15:34:24.559Z,8.10
2019-01-20T15:36:53.994Z,8.00
2019-01-20T15:39:23.401Z,8.80
2019-01-20T15:41:52.879Z,8.43
2019-01-20T15:44:27.128Z,8.90
2019-01-20T15:46:56.593Z,8.23
2019-01-20T15:49:26.045Z,8.57
2019-01-20T15:51:55.507Z,8.10
2019-01-20T15:54:24.981Z,8.90
2019-01-20T15:56:54.435Z,8.57
2019-01-20T15:59:23.933Z,9.00
2019-01-20T16:01:53.429Z,9.07
2019-01-20T16:04:24.199Z,9.73
2019-01-20T16:06:53.751Z,10.10
2019-01-20T16:09:23.195Z,8.70
2019-01-20T16:11:52.647Z,10.23
2019-01-20T16:14:22.091Z,9.87
2019-01-20T16:16:51.846Z,9.33
2019-01-20T16:19:21.284Z,9.37
2019-01-20T16:21:50.761Z,9.27
2019-01-20T16:24:20.191Z,10.00
2019-01-20T16:26:49.830Z,10.07
2019-01-20T16:29:19.377Z,10.00
2019-01-20T16:31:48.834Z,9.90
2019-01-20T16:34:19.177Z,10.33
2019-01-20T16:36:48.709Z,9.77
2019-01-20T16:39:19.791Z,9.53
2019-01-20T16:41:49.270Z,10.60
2019-01-20T16:44:18.698Z,11.20
2019-01-20T16:46:48.206Z,10.97
2019-01-20T16:49:17.640Z,10.57
2019-01-20T16:51:47.073Z,11.00
2019-01-20T16:54:18.885Z,11.80
2019-01-20T16:56:48.338Z,11.13
2019-01-20T16:59:17.887Z,11.80
2019-01-20T17:01:47.362Z,10.43
2019-01-20T17:04:16.861Z,10.73
2019-01-20T17:06:47.093Z,10.57
2019-01-20T17:09:16.528Z,11.60
2019-01-20T17:11:47.630Z,10.90
2019-01-20T17:14:17.058Z,10.93
2019-01-20T17:16:48.143Z,11.70
2019-01-20T17:19:17.919Z,12.43
2019-01-20T17:21:47.462Z,12.00
2019-01-20T17:24:17.008Z,11.30
2019-01-20T17:26:46.534Z,12.27
2019-01-20T17:29:17.674Z,12.37
2019-01-20T17:31:47.108Z,12.60
2019-01-20T17:34:16.571Z,14.07
2019-01-20T17:36:59.204Z,12.63
2019-01-20T17:39:28.642Z,13.63
2019-01-20T17:41:58.072Z,13.90
2019-01-20T17:44:27.545Z,13.50
2019-01-20T17:46:56.966Z,13.73
2019-01-20T17:49:26.418Z,14.80
2019-01-20T17:51:55.883Z,14.27
2019-01-20T17:54:25.344Z,14.07
2019-01-20T17:56:54.812Z,14.70
2019-01-20T17:59:24.240Z,14.73
2019-01-20T18:01:53.647Z,15.00
2019-01-20T18:04:23.105Z,14.33
2019-01-20T18:06:52.564Z,14.90
2019-01-20T18:09:21.995Z,14.53
2019-01-20T18:11:53.000Z,15.40
2019-01-20T18:14:22.481Z,14.93
2019-01-20T18:16:53.965Z,15.80
2019-01-20T18:19:26.554Z,17.37
2019-01-20T18:21:56.004Z,16.13
2019-01-20T18:24:44.802Z,14.03
2019-01-20T18:27:14.330Z,14.30
2019-01-20T18:29:43.790Z,15.17
2019-01-20T18:32:13.217Z,15.50
2019-01-20T18:34:42.655Z,18.97
2019-01-20T18:37:12.104Z,18.20
2019-01-20T18:39:41.526Z,18.50
2019-01-20T18:42:11.040Z,19.07
2019-01-20T18:44:40.542Z,18.33
2019-01-20T18:47:10.065Z,17.40
2019-01-20T18:49:39.537Z,16.03
2019-01-20T18:52:14.693Z,17.20
2019-01-20T18:54:49.051Z,16.57
2019-01-20T18:57:20.199Z,16.57
2019-01-20T18:59:49.747Z,16.47
2019-01-20T19:02:19.166Z,15.83
2019-01-20T19:05:01.305Z,15.30
2019-01-20T19:07:30.745Z,13.13
2019-01-20T19:10:22.606Z,14.30
2019-01-20T19:12:52.020Z,13.47
2019-01-20T19:15:40.888Z,11.90
2019-01-20T19:18:22.948Z,13.27
2019-01-20T19:20:57.977Z,13.10
2019-01-20T19:23:27.424Z,12.43
2019-01-20T19:25:56.861Z,11.30
2019-01-20T19:28:26.295Z,12.00
2019-01-20T19:30:55.747Z,10.43
2019-01-20T19:33:25.236Z,11.87
2019-01-20T19:35:54.674Z,11.90
2019-01-20T19:38:24.123Z,12.23
2019-01-20T19:41:13.111Z,12.13
2019-01-20T19:43:42.588Z,11.83
2019-01-20T19:46:16.179Z,12.90
2019-01-20T19:48:43.207Z,13.53
2019-01-20T19:51:25.676Z,13.17
2019-01-20T19:53:55.205Z,12.63
2019-01-20T19:56:24.631Z,12.93
2019-01-20T19:58:54.059Z,11.87
2019-01-20T20:01:30.589Z,12.00
2019-01-20T20:03:58.335Z,12.37
2019-01-20T20:06:27.806Z,12.43
2019-01-20T20:08:57.240Z,11.47
2019-01-20T20:11:26.655Z,11.97
2019-01-20T20:13:56.090Z,11.53
2019-01-20T20:16:44.975Z,11.67
2019-01-20T20:19:27.686Z,11.60
2019-01-20T20:21:57.653Z,12.20
2019-01-20T20:24:27.102Z,12.33
2019-01-20T20:26:56.521Z,11.73
2019-01-20T20:29:25.966Z,11.40
2019-01-20T20:31:55.421Z,13.43
2019-01-20T20:34:24.845Z,13.73
2019-01-20T20:37:18.438Z,13.50
2019-01-20T20:39:47.862Z,14.80
2019-01-20T20:42:17.282Z,15.07
2019-01-20T20:44:46.809Z,15.17
2019-01-20T20:47:40.553Z,15.60
2019-01-20T20:50:12.576Z,15.30
2019-01-20T20:52:46.187Z,15.80
2019-01-20T20:55:26.425Z,15.73
2019-01-20T20:57:55.868Z,15.80
2019-01-20T21:00:38.528Z,17.60
2019-01-20T21:03:10.773Z,17.60
2019-01-20T21:05:40.265Z,16.70
2019-01-20T21:08:09.773Z,17.17
2019-01-20T21:10:39.213Z,19.07
2019-01-20T21:13:08.624Z,17.90
2019-01-20T21:15:38.126Z,18.10
2019-01-20T21:18:07.789Z,18.37
2019-01-20T21:20:37.468Z,20.07
2019-01-20T21:23:12.035Z,18.27
2019-01-20T21:25:38.157Z,18.43
2019-01-20T21:28:07.604Z,19.43
2019-01-20T21:30:37.028Z,19.20
2019-01-20T21:33:06.462Z,20.37
2019-01-20T21:35:35.955Z,20.20
2019-01-20T21:38:06.902Z,20.30
2019-01-20T21:40:36.476Z,20.83
2019-01-20T21:43:05.998Z,20.43
2019-01-20T21:45:35.433Z,21.23
2019-01-20T21:48:04.860Z,20.27
2019-01-20T21:50:34.275Z,20.90
2019-01-20T21:53:03.713Z,20.43
2019-01-20T21:55:33.221Z,21.23
2019-01-20T21:58:02.772Z,20.63
2019-01-20T22:00:32.180Z,20.00
2019-01-20T22:03:14.607Z,18.63
2019-01-20T22:05:44.046Z,20.10
2019-01-20T22:08:30.953Z,19.90
2019-01-20T22:11:00.373Z,22.77
2019-01-20T22:13:29.813Z,22.93
2019-01-20T22:16:18.638Z,21.77
2019-01-20T22:18:48.138Z,21.97
2019-01-20T22:21:17.645Z,22.00
2019-01-20T22:23:47.101Z,21.70
2019-01-20T22:26:16.542Z,21.13
2019-01-20T22:28:59.073Z,21.53
2019-01-20T22:31:28.558Z,20.23
2019-01-20T22:33:57.966Z,18.80
2019-01-20T22:36:27.835Z,17.87
2019-01-20T22:39:16.693Z,18.73
2019-01-20T22:41:46.282Z,16.40
2019-01-20T22:44:15.759Z,18.43
2019-01-20T22:46:45.238Z,17.27
2019-01-20T22:49:27.342Z,17.43
2019-01-20T22:51:56.765Z,17.10
2019-01-20T22:54:39.128Z,17.60
2019-01-20T22:57:08.592Z,16.93
2019-01-20T22:59:38.179Z,17.27
2019-01-20T23:02:07.637Z,16.77
2019-01-20T23:04:37.056Z,17.33
2019-01-20T23:07:06.666Z,16.83
2019-01-20T23:09:36.166Z,17.67
2019-01-20T23:12:05.721Z,16.43
2019-01-20T23:14:35.169Z,16.60
2019-01-20T23:17:07.857Z,16.13
2019-01-20T23:19:36.635Z,16.20
2019-01-20T23:22:06.094Z,15.27
2019-01-20T23:24:36.791Z,16.33
2019-01-20T23:27:19.582Z,15.87
2019-01-20T23:29:49.101Z,18.63
2019-01-20T23:32:19.857Z,20.67
2019-01-20T23:34:49.367Z,17.67
2019-01-20T23:37:18.797Z,17.60
2019-01-20T23:39:48.277Z,17.90
2019-01-20T23:42:17.714Z,19.07
2019-01-20T23:44:47.167Z,18.90
2019-01-20T23:47:16.618Z,17.60
2019-01-20T23:49:46.605Z,19.37
2019-01-20T23:52:16.067Z,18.70
2019-01-20T23:54:45.885Z,17.90
2019-01-20T23:57:18.391Z,18.57
2019-01-20T23:59:51.494Z,20.30
